Time;durP1;ratioP1;P1;durP2;ratioP2;P2;SDS_P1;SDS_P2;PMS_P1;PMS_P2;Temp;Humidity;BMP_temperature;BMP_pressure;BME280_temperature;BME280_humidity;BME280_pressure;Samples;Min_cycle;Max_cycle;Signal;HPM_P1;HPM_P2
2023/04/17 00:04:13;;;;;;;;;;;21.40;54.30;;;;;;4746290;58;20356;-28
2023/04/17 00:09:14;;;;;;;;;;;21.30;54.10;;;;;;4765922;55;20088;-31
2023/04/17 00:14:14;;;;;;;;;;;21.40;54.20;;;;;;4839078;55;20084;-29
2023/04/17 00:19:15;;;;;;;;;;;21.30;54.30;;;;;;4746390;58;20315;-29
2023/04/17 00:24:15;;;;;;;;;;;21.40;54.20;;;;;;4786781;55;20279;-29
2023/04/17 00:29:16;;;;;;;;;;;21.40;54.30;;;;;;4751875;55;20492;-31
2023/04/17 00:34:17;;;;;;;;;;;21.30;54.10;;;;;;4752815;55;20068;-27
2023/04/17 00:39:17;;;;;;;;;;;21.30;54.30;;;;;;4821468;55;20088;-27
2023/04/17 00:44:18;;;;;;;;;;;21.30;54.20;;;;;;4762348;55;20120;-27
2023/04/17 00:49:19;;;;;;;;;;;21.40;54.20;;;;;;4746231;58;20069;-32
2023/04/17 00:54:21;;;;;;;;;;;21.30;54.30;;;;;;4804365;55;20485;-28
2023/04/17 00:59:22;;;;;;;;;;;21.30;54.70;;;;;;4812037;55;20132;-31
2023/04/17 01:04:23;;;;;;;;;;;21.30;54.10;;;;;;4745966;58;20724;-32
2023/04/17 01:09:24;;;;;;;;;;;21.30;54.20;;;;;;4792775;55;20136;-29
2023/04/17 01:14:24;;;;;;;;;;;21.40;54.20;;;;;;4828179;55;20160;-27
2023/04/17 01:19:26;;;;;;;;;;;21.40;54.20;;;;;;4755202;55;20068;-28
2023/04/17 01:24:26;;;;;;;;;;;21.30;54.70;;;;;;4771585;55;20797;-29
2023/04/17 01:29:27;;;;;;;;;;;21.30;54.20;;;;;;4746982;58;20113;-26
2023/04/17 01:34:29;;;;;;;;;;;21.40;54.30;;;;;;4745797;58;20081;-29
2023/04/17 01:39:30;;;;;;;;;;;21.30;54.20;;;;;;4795576;55;20604;-28
2023/04/17 01:44:30;;;;;;;;;;;21.30;54.20;;;;;;4746486;58;20113;-28
2023/04/17 01:49:31;;;;;;;;;;;21.30;54.20;;;;;;4878087;55;20052;-33
2023/04/17 01:54:32;;;;;;;;;;;21.30;54.30;;;;;;4798631;55;20354;-30
2023/04/17 01:59:32;;;;;;;;;;;21.30;54.20;;;;;;4841924;55;20076;-23
2023/04/17 02:04:33;;;;;;;;;;;21.30;54.30;;;;;;4814797;55;20275;-28
2023/04/17 02:09:34;;;;;;;;;;;21.30;54.20;;;;;;4797739;55;20104;-29
2023/04/17 02:14:34;;;;;;;;;;;21.30;54.30;;;;;;4827306;55;20152;-30
2023/04/17 02:19:35;;;;;;;;;;;21.30;54.30;;;;;;4835446;55;20132;-31
2023/04/17 02:24:35;;;;;;;;;;;21.30;54.30;;;;;;4808327;55;20113;-28
2023/04/17 02:29:36;;;;;;;;;;;21.30;54.20;;;;;;4795363;55;20310;-29
2023/04/17 02:34:37;;;;;;;;;;;21.30;54.30;;;;;;4745881;55;20156;-29
2023/04/17 02:39:38;;;;;;;;;;;21.30;54.20;;;;;;4800553;55;20128;-28
2023/04/17 02:44:41;;;;;;;;;;;21.30;54.20;;;;;;4746285;58;20922;-31
2023/04/17 02:49:41;;;;;;;;;;;21.30;54.20;;;;;;4791280;55;20128;-29
2023/04/17 02:54:42;;;;;;;;;;;21.30;54.30;;;;;;4777320;55;20302;-27
2023/04/17 02:59:43;;;;;;;;;;;21.30;54.20;;;;;;4829270;55;20338;-29
2023/04/17 03:04:43;;;;;;;;;;;21.30;54.30;;;;;;4783881;55;20065;-30
2023/04/17 03:09:47;;;;;;;;;;;21.30;54.30;;;;;;4746465;55;20112;-29
2023/04/17 03:14:48;;;;;;;;;;;21.30;54.20;;;;;;4813397;55;20056;-30
2023/04/17 03:19:48;;;;;;;;;;;21.30;54.30;;;;;;4772042;55;20053;-29
2023/04/17 03:24:49;;;;;;;;;;;21.30;54.30;;;;;;4750814;55;20100;-28
2023/04/17 03:29:50;;;;;;;;;;;21.30;54.30;;;;;;4746394;58;20311;-28
2023/04/17 03:34:50;;;;;;;;;;;21.30;54.30;;;;;;4745367;55;20112;-30
2023/04/17 03:39:51;;;;;;;;;;;21.30;54.40;;;;;;4833563;55;20290;-29
2023/04/17 03:44:52;;;;;;;;;;;21.30;54.40;;;;;;4745672;58;20096;-31
2023/04/17 03:49:52;;;;;;;;;;;21.30;54.70;;;;;;4790191;55;20303;-31
2023/04/17 03:54:53;;;;;;;;;;;21.30;54.60;;;;;;4755382;55;20076;-30
2023/04/17 03:59:54;;;;;;;;;;;21.30;54.60;;;;;;4782322;55;20136;-30
2023/04/17 04:04:54;;;;;;;;;;;21.30;54.50;;;;;;4763722;55;20116;-30
2023/04/17 04:09:55;;;;;;;;;;;21.30;54.60;;;;;;4784076;55;20104;-31
2023/04/17 04:14:55;;;;;;;;;;;21.30;54.60;;;;;;4746610;58;20394;-32
2023/04/17 04:19:56;;;;;;;;;;;21.30;54.60;;;;;;4785593;55;20045;-30
2023/04/17 04:24:58;;;;;;;;;;;21.30;54.60;;;;;;4786306;55;20113;-31
2023/04/17 04:30:01;;;;;;;;;;;21.30;54.70;;;;;;4746528;58;20358;-25
2023/04/17 04:35:02;;;;;;;;;;;21.30;54.60;;;;;;4746095;58;20109;-31
2023/04/17 04:40:09;;;;;;;;;;;21.30;54.70;;;;;;4746386;58;20056;-31
2023/04/17 04:45:10;;;;;;;;;;;21.30;54.60;;;;;;4745954;58;20121;-28
2023/04/17 04:50:11;;;;;;;;;;;21.20;54.70;;;;;;4799016;55;20068;-29
2023/04/17 04:55:13;;;;;;;;;;;21.30;54.80;;;;;;4746489;56;20476;-28
2023/04/17 05:00:14;;;;;;;;;;;21.30;54.70;;;;;;4897955;55;20407;-27
2023/04/17 05:05:15;;;;;;;;;;;21.30;54.70;;;;;;4753642;55;20077;-30
2023/04/17 05:10:15;;;;;;;;;;;21.30;54.60;;;;;;4778441;55;20116;-29
2023/04/17 05:15:16;;;;;;;;;;;21.30;54.70;;;;;;4746308;58;20116;-31
2023/04/17 05:20:17;;;;;;;;;;;21.30;54.70;;;;;;4749913;55;20120;-24
2023/04/17 05:25:18;;;;;;;;;;;21.30;54.60;;;;;;4767428;55;20278;-28
2023/04/17 05:30:19;;;;;;;;;;;21.30;55.20;;;;;;4770417;55;20302;-30
2023/04/17 05:35:20;;;;;;;;;;;21.30;54.60;;;;;;4799939;55;20176;-32
2023/04/17 05:40:21;;;;;;;;;;;21.30;54.60;;;;;;4785809;55;20318;-28
2023/04/17 05:45:21;;;;;;;;;;;21.30;54.60;;;;;;4749424;55;20148;-28
2023/04/17 05:50:22;;;;;;;;;;;21.30;54.60;;;;;;4746075;58;20076;-30
2023/04/17 05:55:22;;;;;;;;;;;21.30;54.60;;;;;;4799913;55;20060;-32
2023/04/17 06:00:23;;;;;;;;;;;21.30;54.60;;;;;;4754699;55;20303;-28
2023/04/17 06:05:24;;;;;;;;;;;21.30;54.60;;;;;;4754225;55;20152;-30
2023/04/17 06:10:25;;;;;;;;;;;21.30;54.60;;;;;;4770389;55;20358;-28
2023/04/17 06:15:26;;;;;;;;;;;21.30;54.60;;;;;;4810349;55;20057;-30
2023/04/17 06:20:27;;;;;;;;;;;21.30;54.50;;;;;;4746704;58;20327;-32
2023/04/17 06:25:27;;;;;;;;;;;21.30;54.60;;;;;;4746166;58;20065;-27
2023/04/17 06:30:28;;;;;;;;;;;21.30;54.50;;;;;;4746008;58;20132;-30
2023/04/17 06:35:29;;;;;;;;;;;21.30;54.60;;;;;;4842707;54;20124;-29
2023/04/17 06:40:30;;;;;;;;;;;21.30;54.50;;;;;;4799762;55;20290;-31
2023/04/17 06:45:31;;;;;;;;;;;21.30;54.50;;;;;;4895391;55;20072;-30
2023/04/17 06:50:32;;;;;;;;;;;21.30;54.50;;;;;;4768101;55;20056;-31
2023/04/17 06:55:33;;;;;;;;;;;21.30;54.50;;;;;;4797680;55;20327;-31
2023/04/17 07:00:34;;;;;;;;;;;21.30;54.50;;;;;;4781520;55;20361;-31
2023/04/17 07:05:34;;;;;;;;;;;21.30;54.60;;;;;;4760322;55;20060;-29
2023/04/17 07:10:35;;;;;;;;;;;21.30;54.50;;;;;;4794445;55;20100;-29
2023/04/17 07:15:36;;;;;;;;;;;21.30;54.50;;;;;;4746341;58;20310;-27
2023/04/17 07:20:36;;;;;;;;;;;21.30;54.50;;;;;;4768835;55;20088;-30
2023/04/17 07:25:37;;;;;;;;;;;21.30;54.60;;;;;;4746315;58;20440;-26
2023/04/17 07:30:38;;;;;;;;;;;21.30;54.50;;;;;;4834779;55;20132;-26
2023/04/17 07:35:38;;;;;;;;;;;21.30;54.70;;;;;;4824183;55;20310;-22
2023/04/17 07:40:40;;;;;;;;;;;21.40;55.00;;;;;;4776009;55;20164;-28
2023/04/17 07:45:40;;;;;;;;;;;21.40;55.20;;;;;;4774045;55;20312;-27
2023/04/17 07:50:41;;;;;;;;;;;21.40;55.20;;;;;;4744387;58;20070;-26
2023/04/17 07:55:42;;;;;;;;;;;21.50;55.40;;;;;;4766230;55;20168;-20
2023/04/17 08:00:42;;;;;;;;;;;21.50;55.50;;;;;;4750560;55;20064;-28
2023/04/17 08:05:43;;;;;;;;;;;21.50;55.60;;;;;;4768200;55;20247;-28
2023/04/17 08:10:43;;;;;;;;;;;21.60;55.80;;;;;;4768639;55;20072;-26
2023/04/17 08:15:46;;;;;;;;;;;21.50;55.80;;;;;;4761861;55;20068;-27
2023/04/17 08:20:46;;;;;;;;;;;21.50;55.80;;;;;;4767688;55;20421;-26
2023/04/17 08:25:47;;;;;;;;;;;21.60;55.90;;;;;;4743556;58;20061;-28
2023/04/17 08:30:51;;;;;;;;;;;21.60;55.90;;;;;;4781496;55;20559;-25
2023/04/17 08:35:52;;;;;;;;;;;21.60;56.00;;;;;;4834117;55;20283;-26
2023/04/17 08:40:53;;;;;;;;;;;21.60;56.10;;;;;;4808568;55;20101;-28
2023/04/17 08:45:54;;;;;;;;;;;21.70;56.20;;;;;;4762269;55;20135;-28
2023/04/17 08:50:54;;;;;;;;;;;21.70;56.30;;;;;;4745045;58;20319;-30
2023/04/17 08:55:58;;;;;;;;;;;21.70;56.30;;;;;;4765327;55;20120;-26
2023/04/17 09:01:18;;;;;;;;;;;21.70;56.20;;;;;;4744204;55;20084;-27
2023/04/17 09:06:19;;;;;;;;;;;21.70;58.50;;;;;;4755421;55;20314;-25
2023/04/17 09:11:20;;;;;;;;;;;21.80;61.40;;;;;;4782057;55;20168;-28
2023/04/17 09:16:23;;;;;;;;;;;21.80;63.10;;;;;;4804038;55;20119;-27
2023/04/17 09:21:27;;;;;;;;;;;21.80;62.50;;;;;;4744011;58;20307;-27
2023/04/17 09:26:30;;;;;;;;;;;21.70;63.00;;;;;;4772495;55;20116;-21
2023/04/17 09:31:33;;;;;;;;;;;21.80;62.90;;;;;;4780181;55;20076;-27
2023/04/17 09:36:37;;;;;;;;;;;21.70;62.90;;;;;;4770801;55;20581;-27
2023/04/17 09:41:38;;;;;;;;;;;21.80;62.90;;;;;;4780620;55;20162;-27
2023/04/17 09:46:41;;;;;;;;;;;21.80;62.90;;;;;;4771733;55;20112;-23
2023/04/17 09:51:42;;;;;;;;;;;21.80;62.70;;;;;;4777711;55;20758;-26
2023/04/17 09:56:42;;;;;;;;;;;21.80;62.50;;;;;;4762471;55;20195;-25
2023/04/17 10:01:44;;;;;;;;;;;21.80;62.50;;;;;;4744804;55;20163;-28
2023/04/17 10:06:45;;;;;;;;;;;21.80;62.40;;;;;;4743689;55;20128;-28
2023/04/17 10:11:46;;;;;;;;;;;21.80;62.30;;;;;;4748239;55;20133;-28
2023/04/17 10:16:47;;;;;;;;;;;21.80;61.90;;;;;;4763429;55;20279;-29
2023/04/17 10:22:08;;;;;;;;;;;21.80;61.70;;;;;;4791643;55;20374;-29
2023/04/17 10:30:41;;;;;;;;;;;21.80;61.50;;;;;;4744694;55;20295;-26
2023/04/17 10:35:42;;;;;;;;;;;21.80;61.40;;;;;;4746758;55;20056;-30
2023/04/17 10:40:43;;;;;;;;;;;21.90;61.30;;;;;;4764273;55;20120;-24
2023/04/17 10:45:51;;;;;;;;;;;21.80;61.30;;;;;;4793800;55;20064;-28
2023/04/17 10:50:52;;;;;;;;;;;21.80;61.20;;;;;;4744431;58;20128;-26
2023/04/17 10:55:55;;;;;;;;;;;21.90;61.30;;;;;;4778976;55;20121;-29
2023/04/17 11:01:00;;;;;;;;;;;21.90;61.20;;;;;;4766870;55;20146;-26
2023/04/17 11:06:04;;;;;;;;;;;21.90;61.10;;;;;;4754075;55;20116;-31
2023/04/17 11:11:10;;;;;;;;;;;21.90;61.20;;;;;;4779471;55;20330;-29
2023/04/17 11:16:11;;;;;;;;;;;21.90;61.00;;;;;;4845186;55;20307;-26
2023/04/17 11:21:15;;;;;;;;;;;21.90;61.00;;;;;;4770812;55;20057;-25
2023/04/17 11:26:17;;;;;;;;;;;21.90;60.90;;;;;;4763012;55;20275;-25
2023/04/17 11:31:17;;;;;;;;;;;21.90;60.90;;;;;;4752984;55;20188;-27
2023/04/17 11:36:18;;;;;;;;;;;21.90;60.90;;;;;;4767730;55;20328;-29
2023/04/17 11:41:19;;;;;;;;;;;21.90;60.80;;;;;;4782702;55;20064;-26
2023/04/17 11:46:20;;;;;;;;;;;21.90;60.80;;;;;;4744609;55;20091;-29
2023/04/17 11:51:20;;;;;;;;;;;21.90;60.70;;;;;;4763887;55;20110;-25
2023/04/17 11:56:26;;;;;;;;;;;21.90;60.70;;;;;;4745589;55;20072;-31
2023/04/17 12:01:27;;;;;;;;;;;21.90;60.60;;;;;;4767566;55;20298;-24
2023/04/17 12:06:38;;;;;;;;;;;21.90;60.60;;;;;;4743560;58;20081;-27
2023/04/17 12:11:39;;;;;;;;;;;21.90;60.60;;;;;;4754873;55;20291;-26
2023/04/17 12:16:40;;;;;;;;;;;21.90;60.50;;;;;;4756043;55;20056;-26
2023/04/17 12:21:42;;;;;;;;;;;21.90;60.50;;;;;;4770829;55;20144;-27
2023/04/17 12:26:46;;;;;;;;;;;22.00;60.60;;;;;;4743576;58;20072;-22
2023/04/17 12:31:47;;;;;;;;;;;21.90;60.40;;;;;;4814925;55;20057;-29
2023/04/17 12:36:49;;;;;;;;;;;22.00;60.50;;;;;;4755937;55;20084;-31
2023/04/17 12:41:50;;;;;;;;;;;22.00;60.70;;;;;;4750546;55;20402;-27
2023/04/17 12:46:51;;;;;;;;;;;21.90;60.70;;;;;;4782459;55;20217;-32
2023/04/17 12:51:51;;;;;;;;;;;21.90;60.80;;;;;;4779368;55;20397;-29
2023/04/17 12:56:53;;;;;;;;;;;21.80;60.70;;;;;;4745356;55;20124;-30
2023/04/17 13:01:53;;;;;;;;;;;21.80;60.60;;;;;;4751221;55;20346;-29
2023/04/17 13:06:54;;;;;;;;;;;21.80;60.60;;;;;;4750244;55;20069;-30
2023/04/17 13:11:56;;;;;;;;;;;21.80;60.50;;;;;;4746793;58;20357;-28
2023/04/17 13:16:57;;;;;;;;;;;21.80;60.40;;;;;;4765049;55;20302;-31
2023/04/17 13:21:59;;;;;;;;;;;21.80;60.40;;;;;;4774839;55;20159;-28
2023/04/17 13:27:00;;;;;;;;;;;21.70;60.30;;;;;;4746012;58;20076;-32
2023/04/17 13:32:01;;;;;;;;;;;21.70;60.30;;;;;;4746200;58;20848;-34
2023/04/17 13:37:02;;;;;;;;;;;21.70;60.30;;;;;;4776046;55;20052;-32
2023/04/17 13:42:03;;;;;;;;;;;21.70;60.20;;;;;;4799000;55;20323;-27
2023/04/17 13:47:06;;;;;;;;;;;21.70;60.20;;;;;;4746086;58;20084;-30
2023/04/17 13:52:07;;;;;;;;;;;21.70;60.10;;;;;;4746402;55;20334;-30
2023/04/17 13:57:08;;;;;;;;;;;21.70;60.00;;;;;;4762844;55;20176;-30
2023/04/17 14:02:09;;;;;;;;;;;21.60;60.00;;;;;;4748531;55;20209;-28
2023/04/17 14:07:11;;;;;;;;;;;21.60;60.00;;;;;;4802174;55;20100;-28
2023/04/17 14:12:18;;;;;;;;;;;21.60;60.00;;;;;;4787093;55;20387;-28
2023/04/17 14:17:19;;;;;;;;;;;21.60;59.90;;;;;;4767913;55;20298;-27
2023/04/17 14:22:22;;;;;;;;;;;21.60;59.90;;;;;;4776186;55;20076;-28
2023/04/17 14:27:23;;;;;;;;;;;21.60;59.90;;;;;;4774779;55;20108;-31
2023/04/17 14:32:23;;;;;;;;;;;21.60;59.80;;;;;;4745920;58;20100;-28
2023/04/17 14:37:25;;;;;;;;;;;21.60;59.80;;;;;;4881531;55;20303;-31
2023/04/17 14:42:26;;;;;;;;;;;21.60;59.90;;;;;;4746704;58;20107;-29
2023/04/17 14:47:26;;;;;;;;;;;21.60;59.80;;;;;;4772943;55;20402;-28
2023/04/17 14:52:27;;;;;;;;;;;21.60;59.80;;;;;;4750171;55;20168;-28
2023/04/17 14:57:28;;;;;;;;;;;21.60;59.80;;;;;;4746282;58;20056;-27
2023/04/17 15:02:29;;;;;;;;;;;21.60;59.70;;;;;;4804155;55;20315;-25
2023/04/17 15:07:30;;;;;;;;;;;21.60;59.70;;;;;;4754244;55;20294;-28
2023/04/17 15:12:30;;;;;;;;;;;21.60;59.80;;;;;;4804469;55;20116;-31
2023/04/17 15:17:32;;;;;;;;;;;21.60;59.70;;;;;;4805588;55;20299;-26
2023/04/17 15:22:33;;;;;;;;;;;21.60;59.60;;;;;;4782037;55;20084;-32
2023/04/17 15:27:34;;;;;;;;;;;21.60;59.70;;;;;;4810504;55;20124;-30
2023/04/17 15:32:36;;;;;;;;;;;21.50;59.50;;;;;;4813409;55;20264;-31
2023/04/17 15:37:37;;;;;;;;;;;21.60;59.60;;;;;;4744903;58;20088;-23
2023/04/17 15:42:38;;;;;;;;;;;21.50;59.50;;;;;;4759179;55;20319;-26
2023/04/17 15:47:38;;;;;;;;;;;21.50;59.50;;;;;;4751335;55;20104;-24
2023/04/17 15:52:39;;;;;;;;;;;21.60;59.50;;;;;;4792013;55;20307;-28
2023/04/17 15:57:41;;;;;;;;;;;21.60;59.50;;;;;;4772546;55;20067;-28
2023/04/17 16:02:46;;;;;;;;;;;21.60;59.50;;;;;;4744907;58;20392;-27
2023/04/17 16:07:49;;;;;;;;;;;21.60;59.50;;;;;;4762475;55;20271;-25
2023/04/17 16:12:50;;;;;;;;;;;21.50;59.40;;;;;;4773800;55;20068;-26
2023/04/17 16:17:50;;;;;;;;;;;21.50;59.40;;;;;;4744583;58;20170;-30
2023/04/17 16:22:51;;;;;;;;;;;21.50;59.40;;;;;;4775550;55;20299;-22
2023/04/17 16:27:52;;;;;;;;;;;21.50;59.40;;;;;;4744313;55;20156;-26
2023/04/17 16:32:52;;;;;;;;;;;21.50;59.30;;;;;;4755290;55;20084;-29
2023/04/17 16:37:53;;;;;;;;;;;21.50;59.30;;;;;;4747031;55;20053;-33
2023/04/17 16:42:54;;;;;;;;;;;21.50;59.30;;;;;;4753737;55;20072;-26
2023/04/17 16:47:54;;;;;;;;;;;21.50;60.00;;;;;;4744274;58;20287;-29
2023/04/17 16:52:55;;;;;;;;;;;21.50;59.30;;;;;;4773913;55;20092;-24
2023/04/17 16:57:58;;;;;;;;;;;21.60;59.30;;;;;;4753056;55;20132;-25
2023/04/17 17:02:59;;;;;;;;;;;21.50;59.30;;;;;;4744323;58;20434;-33
2023/04/17 17:08:00;;;;;;;;;;;21.50;59.30;;;;;;4747478;55;20112;-23
2023/04/17 17:13:01;;;;;;;;;;;21.50;59.30;;;;;;4769592;55;20806;-25
2023/04/17 17:18:01;;;;;;;;;;;21.50;59.20;;;;;;4752688;55;20138;-29
2023/04/17 17:23:02;;;;;;;;;;;21.50;59.30;;;;;;4781452;55;20375;-28
2023/04/17 17:28:02;;;;;;;;;;;21.50;59.30;;;;;;4752772;55;20084;-25
2023/04/17 17:33:03;;;;;;;;;;;21.50;59.30;;;;;;4747447;55;20077;-29
2023/04/17 17:38:04;;;;;;;;;;;21.50;59.20;;;;;;4753228;55;20117;-29
2023/04/17 17:43:05;;;;;;;;;;;21.50;59.20;;;;;;4758384;55;20119;-27
2023/04/17 17:48:06;;;;;;;;;;;21.50;59.20;;;;;;4744985;58;20286;-31
2023/04/17 17:53:06;;;;;;;;;;;21.50;59.30;;;;;;4808167;55;20072;-30
2023/04/17 17:58:10;;;;;;;;;;;21.50;59.20;;;;;;4759888;55;20306;-29
2023/04/17 18:03:14;;;;;;;;;;;21.50;59.20;;;;;;4750851;55;20804;-30
2023/04/17 18:08:15;;;;;;;;;;;21.50;59.20;;;;;;4773122;55;20347;-30
2023/04/17 18:13:16;;;;;;;;;;;21.50;59.20;;;;;;4794182;55;20068;-26
2023/04/17 18:18:16;;;;;;;;;;;21.50;59.20;;;;;;4776388;55;20124;-28
2023/04/17 18:23:17;;;;;;;;;;;21.50;59.20;;;;;;4788742;55;20065;-25
2023/04/17 18:28:18;;;;;;;;;;;21.50;59.20;;;;;;4777157;55;20410;-28
2023/04/17 18:33:19;;;;;;;;;;;21.50;59.20;;;;;;4745881;58;20132;-28
2023/04/17 18:38:19;;;;;;;;;;;21.50;59.30;;;;;;4878134;55;20128;-27
2023/04/17 18:43:20;;;;;;;;;;;21.50;59.30;;;;;;4754514;55;20071;-28
2023/04/17 18:48:22;;;;;;;;;;;21.50;59.20;;;;;;4771739;55;20291;-30
2023/04/17 18:53:22;;;;;;;;;;;21.50;59.20;;;;;;4746334;58;20112;-31
2023/04/17 18:58:23;;;;;;;;;;;21.50;59.20;;;;;;4880619;55;20063;-32
2023/04/17 19:03:24;;;;;;;;;;;21.50;59.20;;;;;;4746571;55;20378;-30
2023/04/17 19:08:24;;;;;;;;;;;21.50;59.30;;;;;;4890756;55;20363;-30
2023/04/17 19:13:25;;;;;;;;;;;21.50;59.30;;;;;;4780505;55;20068;-26
2023/04/17 19:18:26;;;;;;;;;;;21.50;59.20;;;;;;4828636;55;20056;-28
2023/04/17 19:23:26;;;;;;;;;;;21.50;59.30;;;;;;4755912;55;20128;-28
2023/04/17 19:28:27;;;;;;;;;;;21.50;59.70;;;;;;4758361;55;20303;-24
2023/04/17 19:33:28;;;;;;;;;;;21.50;59.20;;;;;;4794396;55;20283;-28
2023/04/17 19:38:30;;;;;;;;;;;21.50;59.20;;;;;;4746089;58;20092;-28
2023/04/17 19:43:30;;;;;;;;;;;21.50;59.20;;;;;;4786295;55;20306;-29
2023/04/17 19:48:31;;;;;;;;;;;21.50;59.20;;;;;;4746125;58;20065;-27
2023/04/17 19:53:33;;;;;;;;;;;21.50;59.30;;;;;;4890249;55;20108;-28
2023/04/17 19:58:34;;;;;;;;;;;21.50;59.20;;;;;;4923385;55;20073;-28
2023/04/17 20:03:36;;;;;;;;;;;21.50;59.20;;;;;;4802518;55;20349;-25
2023/04/17 20:08:37;;;;;;;;;;;21.50;59.20;;;;;;4752598;55;20112;-26
2023/04/17 20:13:38;;;;;;;;;;;21.50;59.20;;;;;;4757837;55;20295;-29
2023/04/17 20:18:40;;;;;;;;;;;21.50;59.20;;;;;;4804757;55;20056;-31
2023/04/17 20:23:41;;;;;;;;;;;21.50;59.20;;;;;;4746199;58;20346;-25
2023/04/17 20:28:41;;;;;;;;;;;21.50;59.20;;;;;;4933271;55;20117;-30
2023/04/17 20:33:42;;;;;;;;;;;21.50;59.20;;;;;;4746645;55;20124;-32
2023/04/17 20:38:43;;;;;;;;;;;21.50;59.20;;;;;;4795280;55;20108;-31
2023/04/17 20:43:43;;;;;;;;;;;21.50;59.20;;;;;;4808752;55;20157;-32
2023/04/17 20:48:44;;;;;;;;;;;21.50;59.30;;;;;;4812254;55;20064;-27
2023/04/17 20:53:45;;;;;;;;;;;21.50;59.20;;;;;;4746490;58;20052;-30
2023/04/17 20:58:45;;;;;;;;;;;21.50;59.30;;;;;;4788052;55;20408;-30
2023/04/17 21:03:46;;;;;;;;;;;21.50;59.10;;;;;;4859840;55;20092;-27
2023/04/17 21:08:47;;;;;;;;;;;21.50;59.10;;;;;;4784148;55;20310;-28
2023/04/17 21:13:47;;;;;;;;;;;21.50;59.20;;;;;;4821262;55;20500;-28
2023/04/17 21:18:48;;;;;;;;;;;21.50;59.10;;;;;;4745904;58;20318;-28
2023/04/17 21:23:48;;;;;;;;;;;21.50;59.10;;;;;;4899403;55;20120;-28
2023/04/17 21:28:49;;;;;;;;;;;21.50;59.10;;;;;;4767542;55;20108;-31
2023/04/17 21:33:50;;;;;;;;;;;21.50;59.10;;;;;;4943472;54;20112;-31
2023/04/17 21:38:50;;;;;;;;;;;21.50;59.10;;;;;;4825480;55;20123;-28
2023/04/17 21:43:52;;;;;;;;;;;21.50;59.50;;;;;;4746493;58;20303;-28
2023/04/17 21:48:53;;;;;;;;;;;21.50;59.10;;;;;;4802656;55;20353;-29
2023/04/17 21:53:53;;;;;;;;;;;21.50;59.10;;;;;;4746789;58;20092;-26
2023/04/17 21:58:54;;;;;;;;;;;21.50;59.10;;;;;;4872594;55;20072;-26
2023/04/17 22:03:55;;;;;;;;;;;21.50;59.20;;;;;;4760416;55;20124;-28
2023/04/17 22:08:55;;;;;;;;;;;21.50;59.10;;;;;;4770839;55;20108;-28
2023/04/17 22:13:56;;;;;;;;;;;21.50;59.20;;;;;;4746506;58;20103;-26
2023/04/17 22:18:57;;;;;;;;;;;21.50;59.10;;;;;;4746702;58;20457;-27
2023/04/17 22:46:30;;;;;;;;;;;21.50;59.10;;;;;;4745032;58;20342;-25
2023/04/17 22:51:31;;;;;;;;;;;21.50;59.10;;;;;;4825818;55;20097;-29
2023/04/17 22:56:32;;;;;;;;;;;21.50;59.10;;;;;;4807144;55;20352;-31
2023/04/17 23:01:33;;;;;;;;;;;21.50;59.10;;;;;;4822322;55;20072;-27
2023/04/17 23:06:33;;;;;;;;;;;21.50;59.10;;;;;;4745859;58;20076;-31
2023/04/17 23:11:34;;;;;;;;;;;21.50;59.00;;;;;;4775450;55;20121;-31
2023/04/17 23:16:35;;;;;;;;;;;21.50;59.10;;;;;;4777976;55;20344;-28
2023/04/17 23:21:36;;;;;;;;;;;21.50;59.70;;;;;;4933434;55;20109;-27
2023/04/17 23:26:36;;;;;;;;;;;21.50;59.00;;;;;;4745804;58;20076;-28
2023/04/17 23:31:37;;;;;;;;;;;21.50;59.00;;;;;;4783751;55;20080;-28
2023/04/17 23:36:37;;;;;;;;;;;21.50;59.00;;;;;;4823767;55;20080;-28
2023/04/17 23:41:41;;;;;;;;;;;21.50;59.00;;;;;;4765629;55;20616;-28
2023/04/17 23:46:42;;;;;;;;;;;21.40;59.00;;;;;;4746225;55;20343;-28
2023/04/17 23:51:42;;;;;;;;;;;21.50;59.00;;;;;;4761328;55;20148;-26
2023/04/17 23:56:44;;;;;;;;;;;21.50;59.00;;;;;;4776692;55;20354;-27
